createdAt,value
2018-07-01T00:01:03.406Z,77.70
2018-07-01T00:03:36.120Z,77.70
2018-07-01T00:06:07.028Z,80.60
2018-07-01T00:08:38.600Z,79.80
2018-07-01T00:11:08.088Z,79.70
2018-07-01T00:13:37.839Z,78.60
2018-07-01T00:16:07.181Z,76.80
2018-07-01T00:18:38.584Z,76.30
2018-07-01T00:21:07.960Z,77.20
2018-07-01T00:23:37.489Z,76.20
2018-07-01T00:26:07.149Z,77.60
2018-07-01T00:28:38.044Z,78.00
2018-07-01T00:31:08.850Z,78.80
2018-07-01T00:33:38.277Z,78.30
2018-07-01T00:36:10.640Z,78.40
2018-07-01T00:38:41.965Z,79.40
2018-07-01T00:41:12.026Z,78.00
2018-07-01T00:43:41.612Z,78.00
2018-07-01T00:46:11.400Z,77.20
2018-07-01T00:48:41.550Z,77.50
2018-07-01T00:51:17.822Z,78.80
2018-07-01T00:53:48.583Z,78.30
2018-07-01T00:56:18.250Z,78.10
2018-07-01T00:58:47.736Z,80.10
2018-07-01T01:01:17.912Z,79.60
2018-07-01T01:06:17.627Z,79.40
2018-07-01T01:08:48.051Z,79.30
2018-07-01T01:11:18.059Z,79.60
2018-07-01T01:13:47.778Z,79.50
2018-07-01T01:16:17.565Z,79.00
2018-07-01T01:18:47.873Z,78.50
2018-07-01T01:21:17.409Z,77.10
2018-07-01T01:23:46.793Z,77.40
2018-07-01T01:26:16.780Z,78.10
2018-07-01T01:28:46.415Z,78.30
2018-07-01T01:31:16.161Z,77.90
2018-07-01T01:33:46.933Z,79.60
2018-07-01T01:36:19.522Z,79.70
2018-07-01T01:38:49.416Z,78.10
2018-07-01T01:41:19.135Z,78.00
2018-07-01T01:43:48.663Z,77.30
2018-07-01T01:46:18.396Z,79.50
2018-07-01T01:48:47.982Z,78.40
2018-07-01T01:51:19.214Z,78.30
2018-07-01T01:53:49.763Z,79.10
2018-07-01T01:56:19.939Z,79.10
2018-07-01T01:58:49.412Z,78.70
2018-07-01T02:01:19.051Z,79.10
2018-07-01T02:03:49.735Z,79.60
2018-07-01T02:06:20.164Z,79.40
2018-07-01T02:08:50.787Z,78.50
2018-07-01T02:11:20.760Z,79.40
2018-07-01T02:13:50.529Z,79.60
2018-07-01T02:16:20.822Z,80.00
2018-07-01T02:18:50.628Z,80.40
2018-07-01T02:21:20.810Z,80.00
2018-07-01T02:23:50.527Z,79.40
2018-07-01T02:26:20.157Z,77.80
2018-07-01T02:28:51.759Z,79.60
2018-07-01T02:31:21.749Z,80.20
2018-07-01T02:33:52.224Z,80.40
2018-07-01T02:36:22.379Z,80.30
2018-07-01T02:38:54.477Z,79.30
2018-07-01T02:41:23.952Z,80.20
2018-07-01T02:43:53.589Z,79.70
2018-07-01T02:46:23.253Z,79.00
2018-07-01T02:48:52.221Z,78.70
2018-07-01T02:51:21.914Z,77.90
2018-07-01T02:53:58.999Z,77.60
2018-07-01T02:56:29.396Z,78.30
2018-07-01T02:58:58.890Z,78.50
2018-07-01T03:01:28.585Z,78.40
2018-07-01T03:03:58.432Z,78.40
2018-07-01T03:06:28.102Z,79.30
2018-07-01T03:08:58.547Z,79.70
2018-07-01T03:11:28.098Z,79.80
2018-07-01T03:13:59.293Z,80.50
2018-07-01T03:16:29.083Z,80.00
2018-07-01T03:18:58.458Z,80.30
2018-07-01T03:21:27.796Z,81.40
2018-07-01T03:23:57.117Z,80.40
2018-07-01T03:26:42.469Z,80.20
2018-07-01T03:29:12.241Z,80.50
2018-07-01T03:31:41.906Z,81.70
2018-07-01T03:34:12.035Z,81.50
2018-07-01T03:36:41.677Z,81.50
2018-07-01T03:39:11.029Z,82.30
2018-07-01T03:41:41.473Z,82.80
2018-07-01T03:44:11.144Z,82.70
2018-07-01T03:46:40.720Z,82.40
2018-07-01T03:49:10.957Z,83.00
2018-07-01T03:51:40.025Z,83.00
2018-07-01T03:54:10.454Z,82.60
2018-07-01T03:59:40.694Z,82.90
2018-07-01T04:02:10.490Z,82.70
2018-07-01T04:04:50.323Z,83.00
2018-07-01T04:07:19.879Z,83.20
2018-07-01T04:09:49.508Z,82.40
2018-07-01T04:12:20.351Z,82.80
2018-07-01T04:14:51.248Z,82.80
2018-07-01T04:17:23.863Z,82.90
2018-07-01T04:19:53.424Z,82.50
2018-07-01T04:22:23.046Z,82.90
2018-07-01T04:24:52.474Z,83.30
2018-07-01T04:27:22.913Z,83.10
2018-07-01T04:29:52.463Z,83.40
2018-07-01T04:32:22.083Z,83.60
2018-07-01T04:34:51.681Z,84.00
2018-07-01T04:37:21.144Z,83.10
2018-07-01T04:39:51.722Z,83.80
2018-07-01T04:42:21.434Z,83.90
2018-07-01T04:44:50.990Z,84.00
2018-07-01T04:49:54.806Z,84.50
2018-07-01T04:52:24.199Z,84.70
2018-07-01T04:54:53.569Z,84.90
2018-07-01T04:57:23.713Z,85.00
2018-07-01T04:59:53.595Z,84.90
2018-07-01T05:02:23.267Z,84.60
2018-07-01T05:04:52.537Z,84.60
2018-07-01T05:07:22.259Z,84.80
2018-07-01T05:09:51.807Z,84.60
2018-07-01T05:12:22.433Z,84.90
2018-07-01T05:14:52.055Z,84.90
2018-07-01T05:17:21.690Z,84.90
2018-07-01T05:19:51.905Z,85.20
2018-07-01T05:22:22.273Z,85.90
2018-07-01T05:24:52.690Z,85.30
2018-07-01T05:27:22.768Z,85.70
2018-07-01T05:29:54.679Z,85.50
2018-07-01T05:32:24.735Z,85.50
2018-07-01T05:34:55.888Z,85.70
2018-07-01T05:37:26.168Z,85.60
2018-07-01T05:39:56.508Z,85.60
2018-07-01T05:42:27.058Z,86.00
2018-07-01T05:44:56.628Z,85.90
2018-07-01T05:47:26.424Z,85.70
2018-07-01T05:49:56.151Z,86.00
2018-07-01T05:52:26.538Z,85.40
2018-07-01T05:54:56.289Z,85.90
2018-07-01T05:57:25.601Z,85.90
2018-07-01T05:59:55.232Z,86.20
2018-07-01T06:02:25.360Z,85.70
2018-07-01T06:04:55.106Z,86.10
2018-07-01T06:07:24.698Z,86.10
2018-07-01T06:09:55.224Z,86.00
2018-07-01T06:12:25.063Z,85.90
2018-07-01T06:14:54.289Z,85.90
2018-07-01T06:17:24.980Z,86.00
2018-07-01T06:19:54.585Z,86.10
2018-07-01T06:22:24.120Z,86.00
2018-07-01T06:24:53.868Z,86.00
2018-07-01T06:27:24.220Z,85.70
2018-07-01T06:29:53.541Z,85.70
2018-07-01T06:32:23.006Z,85.80
2018-07-01T06:34:52.937Z,85.90
2018-07-01T06:37:22.459Z,85.80
2018-07-01T06:39:51.758Z,85.70
2018-07-01T06:42:21.566Z,85.50
2018-07-01T06:44:52.255Z,86.00
2018-07-01T06:47:22.032Z,85.90
2018-07-01T06:49:51.587Z,85.00
2018-07-01T06:52:21.319Z,86.00
2018-07-01T06:54:50.210Z,85.70
2018-07-01T06:57:20.794Z,85.80
2018-07-01T06:59:50.502Z,85.50
2018-07-01T07:02:19.710Z,85.90
2018-07-01T07:04:49.151Z,85.80
2018-07-01T07:07:18.897Z,85.90
2018-07-01T07:09:48.185Z,85.90
2018-07-01T07:12:17.854Z,85.60
2018-07-01T07:14:47.579Z,85.70
2018-07-01T07:17:19.093Z,85.70
2018-07-01T07:19:49.306Z,85.50
2018-07-01T07:22:19.846Z,85.70
2018-07-01T07:24:49.653Z,85.80
2018-07-01T07:27:20.152Z,84.70
2018-07-01T07:29:49.520Z,84.70
2018-07-01T07:32:20.342Z,85.50
2018-07-01T07:34:49.671Z,85.50
2018-07-01T07:37:19.130Z,85.50
2018-07-01T07:39:49.096Z,85.60
2018-07-01T07:42:18.846Z,85.60
2018-07-01T07:44:48.586Z,85.40
2018-07-01T07:47:19.103Z,85.80
2018-07-01T07:49:48.638Z,85.70
2018-07-01T07:52:18.440Z,85.90
2018-07-01T07:54:48.109Z,86.20
2018-07-01T07:57:17.699Z,86.20
2018-07-01T07:59:47.031Z,86.10
2018-07-01T08:02:16.785Z,86.70
2018-07-01T08:04:46.391Z,86.10
2018-07-01T08:07:15.907Z,86.30
2018-07-01T08:09:45.513Z,86.10
2018-07-01T08:12:15.034Z,85.80
2018-07-01T08:14:44.395Z,86.00
2018-07-01T08:17:15.920Z,86.00
2018-07-01T08:19:46.080Z,86.10
2018-07-01T08:22:16.072Z,86.00
2018-07-01T08:24:46.212Z,86.20
2018-07-01T08:27:15.775Z,86.50
2018-07-01T08:29:45.444Z,86.40
2018-07-01T08:32:16.372Z,86.00
2018-07-01T08:34:46.565Z,86.40
2018-07-01T08:37:16.487Z,86.30
2018-07-01T08:39:46.663Z,86.50
2018-07-01T08:42:16.338Z,86.70
2018-07-01T08:44:45.976Z,86.60
2018-07-01T08:47:15.521Z,86.70
2018-07-01T08:49:45.195Z,86.30
2018-07-01T08:52:14.825Z,86.80
2018-07-01T08:54:45.168Z,86.80
2018-07-01T08:57:15.877Z,87.00
2018-07-01T08:59:45.352Z,87.00
2018-07-01T09:02:14.785Z,87.90
2018-07-01T09:04:45.141Z,87.60
2018-07-01T09:07:15.820Z,87.00
2018-07-01T09:09:45.297Z,87.00
2018-07-01T09:12:15.278Z,86.90
2018-07-01T09:14:45.288Z,87.00
2018-07-01T09:17:15.770Z,86.70
2018-07-01T09:19:46.230Z,86.70
2018-07-01T09:22:15.946Z,86.70
2018-07-01T09:24:45.794Z,86.70
2018-07-01T09:27:15.582Z,86.50
2018-07-01T09:29:45.135Z,86.90
2018-07-01T09:32:14.836Z,86.70
2018-07-01T09:34:44.131Z,86.40
2018-07-01T09:37:13.813Z,86.80
2018-07-01T09:39:44.559Z,86.50
2018-07-01T09:42:15.025Z,86.60
2018-07-01T09:44:44.589Z,86.50
2018-07-01T09:47:14.985Z,86.80
2018-07-01T09:49:44.647Z,86.70
2018-07-01T09:52:14.501Z,86.40
2018-07-01T09:54:43.857Z,86.20
2018-07-01T09:57:13.813Z,86.20
2018-07-01T09:59:43.143Z,86.50
2018-07-01T10:02:12.769Z,86.70
2018-07-01T10:04:42.138Z,87.70
2018-07-01T10:07:11.871Z,87.10
2018-07-01T10:09:41.480Z,87.10
2018-07-01T10:12:11.096Z,87.00
2018-07-01T10:14:40.624Z,87.20
2018-07-01T10:17:10.099Z,87.40
2018-07-01T10:19:41.730Z,87.20
2018-07-01T10:22:11.378Z,87.20
2018-07-01T10:24:40.878Z,87.10
2018-07-01T10:27:10.721Z,87.30
2018-07-01T10:29:40.025Z,87.20
2018-07-01T10:32:08.892Z,87.00
2018-07-01T10:34:38.531Z,86.90
2018-07-01T10:37:08.872Z,87.00
2018-07-01T10:39:38.574Z,87.30
2018-07-01T10:42:08.220Z,87.30
2018-07-01T10:44:39.213Z,87.30
2018-07-01T10:47:09.245Z,87.10
2018-07-01T10:49:40.279Z,87.00
2018-07-01T10:52:09.712Z,87.30
2018-07-01T10:54:39.347Z,87.40
2018-07-01T10:57:08.975Z,87.30
2018-07-01T10:59:38.479Z,87.60
2018-07-01T11:02:08.027Z,88.40
2018-07-01T11:04:37.429Z,87.40
2018-07-01T11:07:07.603Z,87.50
2018-07-01T11:09:36.811Z,87.40
2018-07-01T11:12:06.172Z,88.00
2018-07-01T11:14:37.619Z,88.00
2018-07-01T11:17:07.291Z,88.10
2018-07-01T11:19:36.940Z,88.10
2018-07-01T11:22:06.544Z,88.10
2018-07-01T11:24:36.403Z,88.00
2018-07-01T11:27:06.206Z,88.50
2018-07-01T11:29:35.591Z,88.00
2018-07-01T11:32:04.967Z,88.00
2018-07-01T11:34:35.279Z,88.40
2018-07-01T11:37:04.711Z,88.30
2018-07-01T11:39:35.237Z,87.90
2018-07-01T11:42:04.903Z,88.20
2018-07-01T11:44:35.376Z,88.50
2018-07-01T11:47:07.098Z,88.60
2018-07-01T11:49:36.535Z,88.70
2018-07-01T11:52:06.050Z,88.70
2018-07-01T11:54:35.725Z,88.20
2018-07-01T11:57:05.918Z,88.60
2018-07-01T11:59:37.972Z,88.30
2018-07-01T12:02:08.507Z,88.10
2018-07-01T12:04:37.865Z,88.20
2018-07-01T12:07:07.588Z,88.40
2018-07-01T12:09:37.768Z,88.50
2018-07-01T12:12:08.116Z,88.40
2018-07-01T12:14:37.574Z,88.50
2018-07-01T12:17:07.523Z,88.30
2018-07-01T12:19:38.021Z,88.40
2018-07-01T12:22:07.460Z,88.40
2018-07-01T12:24:37.040Z,88.80
2018-07-01T12:27:06.707Z,88.40
2018-07-01T12:29:37.320Z,88.40
2018-07-01T12:32:06.860Z,88.20
2018-07-01T12:34:36.805Z,88.30
2018-07-01T12:37:06.694Z,88.10
2018-07-01T12:39:37.256Z,88.10
2018-07-01T12:42:07.014Z,87.90
2018-07-01T12:44:36.836Z,88.10
2018-07-01T12:47:06.246Z,88.30
2018-07-01T12:49:36.108Z,88.10
2018-07-01T12:52:05.831Z,88.10
2018-07-01T12:54:35.329Z,88.10
2018-07-01T12:57:05.127Z,87.80
2018-07-01T12:59:36.296Z,87.70
2018-07-01T13:02:06.165Z,87.60
2018-07-01T13:04:36.308Z,87.30
2018-07-01T13:07:07.028Z,87.80
2018-07-01T13:09:36.615Z,85.60
2018-07-01T13:12:08.461Z,86.20
2018-07-01T13:14:37.939Z,86.70
2018-07-01T13:17:07.583Z,85.90
2018-07-01T13:19:37.766Z,85.90
2018-07-01T13:22:08.190Z,85.70
2018-07-01T13:24:38.106Z,86.30
2018-07-01T13:27:07.580Z,86.10
2018-07-01T13:29:36.917Z,86.00
2018-07-01T13:32:06.684Z,85.50
2018-07-01T13:34:36.188Z,86.20
2018-07-01T13:37:05.686Z,86.00
2018-07-01T13:39:35.136Z,85.70
2018-07-01T13:42:04.721Z,85.50
2018-07-01T13:44:34.319Z,86.70
2018-07-01T13:47:03.717Z,85.50
2018-07-01T13:49:33.318Z,85.90
2018-07-01T13:52:02.948Z,86.00
2018-07-01T13:54:32.758Z,85.60
2018-07-01T13:57:03.507Z,85.40
2018-07-01T13:59:33.965Z,84.80
2018-07-01T14:02:03.297Z,84.80
2018-07-01T14:04:34.323Z,84.30
2018-07-01T14:07:03.550Z,84.50
2018-07-01T14:09:32.787Z,84.60
2018-07-01T14:12:02.590Z,84.70
2018-07-01T14:14:31.698Z,85.10
2018-07-01T14:17:02.757Z,84.90
2018-07-01T14:19:33.325Z,84.90
2018-07-01T14:22:02.828Z,84.50
2018-07-01T14:24:32.563Z,83.60
2018-07-01T14:27:05.250Z,83.10
2018-07-01T14:29:35.156Z,83.10
2018-07-01T14:32:05.491Z,83.60
2018-07-01T14:34:35.347Z,83.20
2018-07-01T14:37:05.031Z,84.10
2018-07-01T14:39:34.727Z,83.60
2018-07-01T14:42:04.345Z,82.90
2018-07-01T14:44:33.948Z,83.20
2018-07-01T14:47:03.572Z,82.80
2018-07-01T14:49:34.890Z,82.50
2018-07-01T14:52:05.363Z,82.00
2018-07-01T14:54:35.191Z,82.10
2018-07-01T14:57:04.637Z,82.50
2018-07-01T14:59:34.880Z,82.70
2018-07-01T15:02:04.529Z,83.10
2018-07-01T15:04:34.374Z,82.30
2018-07-01T15:07:06.290Z,82.20
2018-07-01T15:09:35.914Z,82.20
2018-07-01T15:12:05.383Z,81.40
2018-07-01T15:14:34.688Z,81.10
2018-07-01T15:17:04.225Z,81.10
2018-07-01T15:19:34.771Z,81.80
2018-07-01T15:22:04.287Z,81.70
2018-07-01T15:24:34.363Z,82.40
2018-07-01T15:27:04.002Z,82.40
2018-07-01T15:29:33.696Z,81.90
2018-07-01T15:32:04.236Z,81.40
2018-07-01T15:34:33.768Z,81.00
2018-07-01T15:37:03.334Z,81.30
2018-07-01T15:39:32.980Z,81.10
2018-07-01T15:42:02.561Z,80.80
2018-07-01T15:44:32.308Z,81.70
2018-07-01T15:47:02.696Z,81.30
2018-07-01T15:49:32.309Z,81.20
2018-07-01T15:52:02.781Z,81.20
2018-07-01T15:54:32.922Z,82.00
2018-07-01T15:57:02.376Z,80.80
2018-07-01T15:59:32.064Z,80.40
2018-07-01T16:02:01.519Z,81.20
2018-07-01T16:04:30.643Z,80.30
2018-07-01T16:07:00.967Z,79.90
2018-07-01T16:09:31.739Z,80.00
2018-07-01T16:12:01.344Z,79.50
2018-07-01T16:14:30.948Z,79.40
2018-07-01T16:17:00.624Z,79.80
2018-07-01T16:19:30.382Z,81.00
2018-07-01T16:22:00.226Z,80.50
2018-07-01T16:24:29.904Z,80.40
2018-07-01T16:27:00.114Z,80.50
2018-07-01T16:29:30.057Z,81.50
2018-07-01T16:32:03.335Z,81.10
2018-07-01T16:34:34.045Z,82.60
2018-07-01T16:37:03.448Z,82.60
2018-07-01T16:39:33.359Z,82.90
2018-07-01T16:42:02.997Z,83.00
2018-07-01T16:44:32.369Z,83.20
2018-07-01T16:47:01.988Z,83.60
2018-07-01T16:49:31.658Z,83.90
2018-07-01T16:52:02.598Z,84.30
2018-07-01T16:54:32.248Z,84.20
2018-07-01T16:57:01.698Z,83.60
2018-07-01T16:59:31.228Z,83.60
2018-07-01T17:02:02.793Z,84.00
2018-07-01T17:04:32.645Z,83.90
2018-07-01T17:07:01.942Z,83.60
2018-07-01T17:09:31.902Z,82.70
2018-07-01T17:12:01.701Z,82.60
2018-07-01T17:14:31.318Z,83.50
2018-07-01T17:17:01.527Z,82.40
2018-07-01T17:19:31.265Z,82.00
2018-07-01T17:22:00.859Z,82.40
2018-07-01T17:24:40.484Z,82.40
2018-07-01T17:27:10.215Z,82.20
2018-07-01T17:29:40.290Z,81.80
2018-07-01T17:35:08.685Z,81.40
2018-07-01T17:37:38.381Z,81.30
2018-07-01T17:40:08.198Z,81.20
2018-07-01T17:42:39.757Z,81.20
2018-07-01T17:45:09.431Z,81.10
2018-07-01T17:47:39.092Z,80.20
2018-07-01T17:50:08.497Z,80.70
2018-07-01T17:52:37.896Z,79.80
2018-07-01T17:55:09.355Z,79.50
2018-07-01T17:57:38.815Z,79.50
2018-07-01T18:00:08.432Z,80.40
2018-07-01T18:02:37.988Z,81.40
2018-07-01T18:05:07.912Z,81.00
2018-07-01T18:07:37.285Z,80.70
2018-07-01T18:10:07.073Z,76.60
2018-07-01T18:12:38.478Z,76.50
2018-07-01T18:15:07.754Z,76.50
2018-07-01T18:17:37.468Z,75.90
2018-07-01T18:20:06.759Z,75.00
2018-07-01T18:23:00.805Z,75.20
2018-07-01T18:25:10.815Z,73.10
2018-07-01T18:27:38.417Z,72.40
2018-07-01T18:30:06.188Z,72.70
2018-07-01T18:32:35.731Z,71.60
2018-07-01T18:35:07.034Z,72.40
2018-07-01T18:37:36.811Z,73.70
2018-07-01T18:40:07.907Z,75.50
2018-07-01T18:43:39.101Z,77.40
2018-07-01T18:49:20.335Z,78.50
2018-07-01T18:51:50.633Z,77.50
2018-07-01T18:54:20.241Z,77.50
2018-07-01T18:56:50.892Z,77.50
2018-07-01T18:59:20.487Z,77.50
2018-07-01T19:01:52.131Z,77.90
2018-07-01T19:04:22.496Z,76.40
2018-07-01T19:06:52.184Z,71.20
2018-07-01T19:09:22.693Z,73.10
2018-07-01T19:11:52.404Z,73.00
2018-07-01T19:14:22.261Z,72.40
2018-07-01T19:16:54.632Z,71.50
2018-07-01T19:19:24.281Z,71.40
2018-07-01T19:21:53.749Z,68.80
2018-07-01T19:24:23.611Z,69.10
2018-07-01T19:26:53.357Z,68.80
2018-07-01T19:29:23.099Z,70.60
2018-07-01T19:31:52.027Z,70.60
2018-07-01T19:34:21.485Z,71.70
2018-07-01T19:36:51.142Z,69.20
2018-07-01T19:39:21.794Z,71.70
2018-07-01T19:41:51.837Z,71.00
2018-07-01T19:44:21.539Z,70.50
2018-07-01T19:46:51.095Z,67.00
2018-07-01T19:49:21.936Z,68.70
2018-07-01T19:51:51.265Z,68.10
2018-07-01T19:54:21.391Z,69.10
2018-07-01T19:56:51.799Z,69.00
2018-07-01T19:59:22.534Z,64.80
2018-07-01T20:01:51.890Z,62.10
2018-07-01T20:04:21.341Z,61.20
2018-07-01T20:06:51.908Z,61.50
2018-07-01T20:09:24.230Z,59.70
2018-07-01T20:11:53.713Z,56.50
2018-07-01T20:17:38.383Z,53.90
2018-07-01T20:20:07.995Z,53.60
2018-07-01T20:22:37.502Z,56.10
2018-07-01T20:25:06.760Z,56.60
2018-07-01T20:27:53.970Z,57.60
2018-07-01T20:30:27.259Z,57.80
2018-07-01T20:32:58.466Z,54.60
2018-07-01T20:35:28.807Z,54.50
2018-07-01T20:37:59.328Z,52.20
2018-07-01T20:40:29.078Z,54.10
2018-07-01T20:42:59.449Z,53.70
2018-07-01T20:45:28.799Z,53.50
2018-07-01T20:47:58.480Z,52.80
2018-07-01T20:50:28.067Z,52.70
2018-07-01T20:52:57.641Z,52.40
2018-07-01T20:55:27.194Z,54.00
2018-07-01T20:57:57.048Z,54.20
2018-07-01T21:00:26.697Z,53.10
2018-07-01T21:02:56.169Z,53.30
2018-07-01T21:05:26.374Z,56.30
2018-07-01T21:07:56.395Z,56.20
2018-07-01T21:10:26.057Z,55.50
2018-07-01T21:12:55.799Z,56.60
2018-07-01T21:15:25.082Z,56.20
2018-07-01T21:17:54.692Z,56.30
2018-07-01T21:20:24.999Z,55.70
2018-07-01T21:23:02.252Z,55.60
2018-07-01T21:25:31.960Z,54.80
2018-07-01T21:28:01.949Z,55.00
2018-07-01T21:30:31.011Z,55.00
2018-07-01T21:33:02.501Z,56.40
2018-07-01T21:35:32.007Z,56.10
2018-07-01T21:38:01.675Z,55.30
2018-07-01T21:40:30.934Z,54.70
2018-07-01T21:43:00.491Z,54.50
2018-07-01T21:45:31.351Z,54.50
2018-07-01T21:48:01.697Z,55.60
2018-07-01T21:50:31.658Z,55.20
2018-07-01T21:53:01.422Z,56.10
2018-07-01T21:55:31.041Z,57.10
2018-07-01T21:58:01.559Z,56.10
2018-07-01T22:00:31.045Z,56.70
2018-07-01T22:03:01.709Z,57.40
2018-07-01T22:05:31.316Z,56.20
2018-07-01T22:08:01.289Z,56.90
2018-07-01T22:10:31.084Z,59.00
2018-07-01T22:13:03.030Z,58.50
2018-07-01T22:15:43.865Z,57.50
2018-07-01T22:18:13.393Z,58.70
2018-07-01T22:20:42.895Z,57.60
2018-07-01T22:23:13.222Z,59.50
2018-07-01T22:25:43.494Z,57.40
2018-07-01T22:28:13.066Z,57.30
2018-07-01T22:30:43.974Z,58.00
2018-07-01T22:33:13.634Z,57.00
2018-07-01T22:35:42.970Z,56.90
2018-07-01T22:38:12.211Z,58.10
2018-07-01T22:40:42.591Z,57.60
2018-07-01T22:43:12.579Z,58.50
2018-07-01T22:45:42.916Z,58.40
2018-07-01T22:48:12.456Z,58.40
2018-07-01T22:50:42.232Z,58.20
2018-07-01T22:53:11.685Z,59.00
2018-07-01T22:55:43.684Z,55.60
2018-07-01T22:58:13.426Z,55.50
2018-07-01T23:00:42.867Z,57.30
2018-07-01T23:03:13.427Z,56.60
2018-07-01T23:05:43.076Z,55.70
2018-07-01T23:08:12.787Z,55.70
2018-07-01T23:10:43.689Z,56.30
2018-07-01T23:13:13.436Z,56.50
2018-07-01T23:15:42.929Z,55.50
2018-07-01T23:18:12.673Z,54.80
2018-07-01T23:20:42.269Z,56.10
2018-07-01T23:23:11.571Z,55.60
2018-07-01T23:25:41.094Z,56.20
2018-07-01T23:28:11.697Z,55.40
2018-07-01T23:30:41.156Z,55.30
2018-07-01T23:33:11.165Z,56.00
2018-07-01T23:35:40.829Z,58.90
2018-07-01T23:38:10.523Z,57.70
2018-07-01T23:40:41.118Z,57.30
2018-07-01T23:43:12.125Z,56.70
2018-07-01T23:45:42.111Z,57.00
2018-07-01T23:48:12.680Z,57.90
2018-07-01T23:50:43.978Z,58.50
2018-07-01T23:53:13.571Z,58.80
2018-07-01T23:55:43.145Z,60.40
2018-07-01T23:58:12.798Z,60.30
